createdAt,value
2018-05-15T00:01:03.424Z,52.30
2018-05-15T00:03:30.989Z,49.73
2018-05-15T00:05:58.517Z,52.00
2018-05-15T00:08:26.046Z,49.97
2018-05-15T00:10:54.249Z,49.60
2018-05-15T00:13:21.785Z,50.77
2018-05-15T00:15:49.314Z,49.50
2018-05-15T00:18:16.856Z,47.47
2018-05-15T00:20:45.382Z,48.70
2018-05-15T00:23:12.921Z,46.67
2018-05-15T00:25:40.591Z,53.93
2018-05-15T00:28:08.129Z,49.10
2018-05-15T00:30:35.665Z,52.17
2018-05-15T00:33:03.224Z,53.90
2018-05-15T00:35:30.748Z,52.10
2018-05-15T00:37:58.277Z,56.53
2018-05-15T00:40:26.359Z,50.83
2018-05-15T00:42:53.901Z,48.30
2018-05-15T00:45:21.428Z,49.83
2018-05-15T00:47:48.988Z,48.20
2018-05-15T00:50:16.522Z,47.07
2018-05-15T00:52:44.114Z,49.13
2018-05-15T00:55:23.997Z,48.80
2018-05-15T00:57:51.529Z,46.07
2018-05-15T01:00:19.053Z,50.37
2018-05-15T01:02:46.620Z,51.80
2018-05-15T01:05:14.149Z,52.97
2018-05-15T01:07:41.677Z,50.13
2018-05-15T01:10:09.258Z,49.63
2018-05-15T01:12:36.785Z,49.37
2018-05-15T01:15:04.321Z,47.37
2018-05-15T01:17:32.029Z,50.80
2018-05-15T01:19:59.651Z,46.60
2018-05-15T01:22:27.184Z,48.50
2018-05-15T01:24:54.929Z,45.23
2018-05-15T01:27:22.452Z,48.20
2018-05-15T01:29:49.988Z,45.93
2018-05-15T01:32:17.692Z,47.63
2018-05-15T01:34:45.220Z,50.63
2018-05-15T01:37:12.757Z,46.17
2018-05-15T01:39:40.409Z,47.63
2018-05-15T01:42:07.951Z,48.27
2018-05-15T01:44:35.477Z,44.50
2018-05-15T01:47:03.253Z,43.40
2018-05-15T01:49:30.865Z,45.30
2018-05-15T01:51:58.393Z,46.57
2018-05-15T01:54:26.138Z,47.80
2018-05-15T01:56:53.667Z,48.20
2018-05-15T01:59:21.192Z,44.63
2018-05-15T02:01:48.744Z,45.80
2018-05-15T02:04:16.277Z,45.70
2018-05-15T02:06:43.805Z,47.23
2018-05-15T02:09:11.604Z,43.87
2018-05-15T02:11:39.134Z,41.20
2018-05-15T02:14:06.665Z,42.00
2018-05-15T02:16:34.472Z,45.60
2018-05-15T02:19:02.025Z,42.50
2018-05-15T02:21:29.552Z,41.40
2018-05-15T02:23:57.465Z,41.30
2018-05-15T02:26:24.989Z,43.47
2018-05-15T02:28:52.530Z,41.50
2018-05-15T02:31:20.560Z,44.17
2018-05-15T02:33:48.080Z,39.40
2018-05-15T02:36:15.604Z,44.10
2018-05-15T02:38:43.333Z,40.00
2018-05-15T02:41:10.860Z,40.33
2018-05-15T02:43:38.385Z,40.30
2018-05-15T02:46:06.212Z,41.90
2018-05-15T02:48:33.732Z,43.60
2018-05-15T02:51:01.252Z,39.87
2018-05-15T02:53:29.526Z,41.83
2018-05-15T02:55:57.049Z,38.03
2018-05-15T02:58:24.569Z,36.73
2018-05-15T03:00:52.128Z,38.50
2018-05-15T03:03:19.656Z,39.17
2018-05-15T03:05:47.181Z,39.13
2018-05-15T03:08:15.997Z,39.97
2018-05-15T03:10:43.528Z,39.90
2018-05-15T03:13:11.053Z,38.63
2018-05-15T03:15:38.625Z,36.80
2018-05-15T03:18:06.146Z,38.83
2018-05-15T03:20:33.716Z,38.80
2018-05-15T03:23:01.455Z,37.87
2018-05-15T03:25:29.028Z,36.20
2018-05-15T03:27:56.553Z,40.63
2018-05-15T03:30:24.224Z,36.53
2018-05-15T03:32:51.748Z,39.70
2018-05-15T03:35:19.273Z,37.77
2018-05-15T03:37:47.009Z,34.77
2018-05-15T03:40:14.533Z,37.27
2018-05-15T03:42:42.137Z,34.60
2018-05-15T03:45:09.889Z,38.13
2018-05-15T03:47:37.410Z,36.57
2018-05-15T03:50:04.930Z,36.70
2018-05-15T03:52:32.772Z,33.77
2018-05-15T03:55:00.300Z,35.50
2018-05-15T03:57:27.825Z,35.50
2018-05-15T03:59:55.474Z,35.20
2018-05-15T04:05:41.957Z,39.27
2018-05-15T04:08:11.877Z,38.77
2018-05-15T04:10:39.397Z,36.50
2018-05-15T04:13:07.108Z,38.50
2018-05-15T04:15:34.641Z,39.03
2018-05-15T04:18:02.160Z,38.53
2018-05-15T04:20:29.896Z,38.90
2018-05-15T04:22:57.441Z,38.87
2018-05-15T04:25:24.973Z,38.10
2018-05-15T04:27:52.540Z,37.50
2018-05-15T04:30:20.061Z,37.87
2018-05-15T04:32:47.584Z,38.03
2018-05-15T04:35:15.598Z,35.67
2018-05-15T04:37:43.121Z,37.43
2018-05-15T04:40:10.644Z,36.07
2018-05-15T04:42:39.584Z,36.10
2018-05-15T04:45:07.107Z,32.57
2018-05-15T04:47:34.641Z,35.07
2018-05-15T04:50:02.211Z,30.57
2018-05-15T04:52:29.746Z,34.40
2018-05-15T04:54:57.264Z,32.43
2018-05-15T04:57:25.038Z,31.47
2018-05-15T04:59:52.565Z,29.90
2018-05-15T05:02:20.248Z,31.40
2018-05-15T05:04:48.013Z,32.03
2018-05-15T05:07:15.552Z,33.90
2018-05-15T05:09:43.080Z,30.77
2018-05-15T05:12:10.641Z,31.60
2018-05-15T05:14:38.160Z,31.90
2018-05-15T05:17:05.676Z,31.57
2018-05-15T05:19:33.241Z,34.90
2018-05-15T05:22:00.773Z,33.30
2018-05-15T05:24:28.292Z,35.27
2018-05-15T05:26:56.046Z,31.03
2018-05-15T05:29:23.579Z,29.60
2018-05-15T05:31:51.109Z,33.27
2018-05-15T05:34:18.681Z,28.73
2018-05-15T05:36:46.202Z,28.70
2018-05-15T05:39:14.267Z,25.93
2018-05-15T05:41:41.825Z,23.40
2018-05-15T05:44:09.348Z,24.40
2018-05-15T05:46:36.869Z,22.67
2018-05-15T05:49:04.447Z,23.67
2018-05-15T05:51:31.972Z,27.10
2018-05-15T05:53:59.500Z,25.87
2018-05-15T05:56:27.274Z,25.33
2018-05-15T05:58:54.788Z,24.13
2018-05-15T06:01:22.312Z,23.27
2018-05-15T06:03:50.192Z,23.73
2018-05-15T06:06:17.792Z,22.53
2018-05-15T06:08:45.325Z,23.93
2018-05-15T06:11:12.873Z,25.87
2018-05-15T06:13:41.022Z,24.43
2018-05-15T06:16:08.554Z,24.07
2018-05-15T06:18:36.327Z,22.90
2018-05-15T06:21:03.954Z,23.83
2018-05-15T06:23:31.445Z,24.50
2018-05-15T06:25:59.112Z,21.80
2018-05-15T06:28:26.645Z,25.00
2018-05-15T06:30:54.392Z,24.37
2018-05-15T06:33:22.092Z,24.47
2018-05-15T06:35:49.613Z,23.50
2018-05-15T06:38:17.129Z,23.27
2018-05-15T06:40:44.979Z,24.50
2018-05-15T06:43:12.501Z,24.83
2018-05-15T06:45:40.025Z,22.67
2018-05-15T06:48:07.665Z,22.87
2018-05-15T06:50:35.191Z,23.37
2018-05-15T06:53:02.707Z,23.07
2018-05-15T06:55:30.268Z,22.80
2018-05-15T06:57:57.793Z,22.87
2018-05-15T07:00:25.320Z,21.87
2018-05-15T07:02:53.013Z,23.20
2018-05-15T07:05:20.549Z,20.40
2018-05-15T07:07:48.081Z,22.40
2018-05-15T07:10:15.648Z,24.07
2018-05-15T07:12:43.173Z,23.73
2018-05-15T07:15:10.696Z,25.80
2018-05-15T07:17:38.268Z,26.73
2018-05-15T07:20:05.797Z,23.20
2018-05-15T07:22:33.333Z,22.97
2018-05-15T07:25:00.890Z,24.17
2018-05-15T07:27:28.453Z,22.20
2018-05-15T07:29:55.965Z,22.77
2018-05-15T07:32:23.725Z,20.67
2018-05-15T07:34:51.300Z,22.13
2018-05-15T07:37:18.830Z,21.40
2018-05-15T07:39:46.809Z,22.23
2018-05-15T07:42:14.328Z,22.53
2018-05-15T07:44:41.860Z,24.17
2018-05-15T07:47:09.917Z,25.80
2018-05-15T07:49:37.441Z,27.30
2018-05-15T07:52:04.965Z,27.77
2018-05-15T07:54:32.880Z,27.50
2018-05-15T07:57:00.418Z,28.40
2018-05-15T07:59:27.949Z,23.77
2018-05-15T08:01:55.641Z,26.30
2018-05-15T08:04:23.228Z,23.53
2018-05-15T08:06:50.736Z,23.10
2018-05-15T08:09:18.444Z,23.77
2018-05-15T08:11:45.977Z,21.23
2018-05-15T08:14:13.504Z,22.00
2018-05-15T08:16:41.065Z,19.33
2018-05-15T08:19:08.593Z,21.37
2018-05-15T08:21:36.248Z,18.90
2018-05-15T08:24:03.805Z,21.33
2018-05-15T08:26:31.333Z,19.77
2018-05-15T08:28:58.853Z,20.23
2018-05-15T08:31:26.505Z,21.10
2018-05-15T08:33:54.028Z,19.10
2018-05-15T08:36:21.554Z,18.47
2018-05-15T08:38:49.112Z,18.27
2018-05-15T08:41:16.664Z,17.80
2018-05-15T08:43:44.189Z,16.00
2018-05-15T08:46:12.116Z,16.47
2018-05-15T08:48:39.645Z,16.53
2018-05-15T08:51:07.181Z,15.23
2018-05-15T08:53:34.924Z,16.87
2018-05-15T08:56:02.458Z,16.60
2018-05-15T08:58:29.992Z,14.10
2018-05-15T09:00:57.916Z,15.57
2018-05-15T09:03:25.458Z,14.33
2018-05-15T09:05:52.985Z,15.00
2018-05-15T09:08:20.548Z,14.60
2018-05-15T09:10:48.094Z,15.00
2018-05-15T09:13:15.613Z,13.73
2018-05-15T09:15:43.201Z,13.97
2018-05-15T09:18:10.788Z,15.23
2018-05-15T09:20:38.280Z,14.10
2018-05-15T09:23:06.213Z,13.50
2018-05-15T09:25:33.749Z,13.90
2018-05-15T09:28:01.276Z,14.20
2018-05-15T09:30:29.025Z,13.67
2018-05-15T09:32:56.551Z,14.97
2018-05-15T09:35:24.074Z,13.07
2018-05-15T09:37:51.632Z,14.57
2018-05-15T09:40:19.154Z,14.50
2018-05-15T09:42:46.683Z,12.87
2018-05-15T09:45:14.236Z,12.73
2018-05-15T09:47:41.766Z,13.97
2018-05-15T09:50:09.300Z,13.57
2018-05-15T09:52:37.010Z,13.10
2018-05-15T09:55:04.537Z,13.37
2018-05-15T09:57:32.064Z,13.83
2018-05-15T09:59:59.849Z,12.10
2018-05-15T10:02:27.377Z,12.57
2018-05-15T10:04:55.029Z,11.63
2018-05-15T10:07:22.601Z,10.90
2018-05-15T10:09:50.129Z,10.43
2018-05-15T10:12:17.665Z,10.97
2018-05-15T10:14:46.243Z,11.57
2018-05-15T10:17:13.760Z,11.90
2018-05-15T10:19:42.385Z,11.50
2018-05-15T10:22:10.072Z,10.40
2018-05-15T10:24:37.597Z,10.70
2018-05-15T10:27:05.135Z,11.13
2018-05-15T10:29:32.913Z,10.53
2018-05-15T10:32:00.438Z,11.03
2018-05-15T10:34:27.980Z,10.53
2018-05-15T10:36:56.427Z,11.20
2018-05-15T10:39:23.980Z,12.97
2018-05-15T10:41:51.501Z,11.40
2018-05-15T10:44:19.305Z,11.73
2018-05-15T10:46:46.819Z,9.43
2018-05-15T10:49:14.357Z,10.90
2018-05-15T10:51:42.204Z,9.80
2018-05-15T10:54:09.724Z,10.57
2018-05-15T10:56:37.310Z,11.50
2018-05-15T10:59:05.063Z,10.57
2018-05-15T11:01:32.592Z,9.80
2018-05-15T11:04:00.124Z,7.13
2018-05-15T11:06:27.677Z,9.20
2018-05-15T11:08:55.723Z,9.17
2018-05-15T11:11:23.277Z,9.07
2018-05-15T11:13:50.873Z,9.40
2018-05-15T11:16:18.445Z,9.67
2018-05-15T11:18:46.071Z,9.83
2018-05-15T11:21:25.611Z,10.30
2018-05-15T11:27:00.241Z,10.70
2018-05-15T11:29:28.321Z,11.70
2018-05-15T11:31:55.840Z,10.73
2018-05-15T11:34:23.629Z,9.90
2018-05-15T11:36:51.156Z,10.00
2018-05-15T11:39:18.763Z,9.40
2018-05-15T11:41:46.776Z,8.37
2018-05-15T11:44:14.495Z,9.30
2018-05-15T11:46:42.351Z,10.07
2018-05-15T11:49:10.653Z,9.67
2018-05-15T11:51:38.203Z,10.40
2018-05-15T11:54:05.237Z,12.27
2018-05-15T11:56:32.853Z,12.10
2018-05-15T11:59:00.364Z,13.20
2018-05-15T12:01:27.922Z,11.17
2018-05-15T12:03:55.519Z,13.20
2018-05-15T12:06:23.057Z,12.10
2018-05-15T12:08:50.576Z,10.83
2018-05-15T12:11:18.246Z,8.47
2018-05-15T12:13:45.772Z,7.93
2018-05-15T12:16:13.300Z,8.03
2018-05-15T12:18:41.042Z,8.03
2018-05-15T12:21:08.569Z,8.90
2018-05-15T12:23:36.102Z,8.73
2018-05-15T12:26:03.819Z,8.73
2018-05-15T12:28:31.341Z,9.10
2018-05-15T12:30:58.868Z,9.50
2018-05-15T12:33:26.426Z,7.83
2018-05-15T12:35:53.948Z,7.83
2018-05-15T12:38:21.485Z,5.83
2018-05-15T12:40:49.269Z,5.53
2018-05-15T12:43:16.793Z,6.13
2018-05-15T12:45:44.318Z,5.80
2018-05-15T12:48:12.133Z,6.40
2018-05-15T12:50:39.584Z,7.30
2018-05-15T12:53:07.100Z,5.83
2018-05-15T12:55:34.827Z,10.40
2018-05-15T12:58:02.357Z,8.60
2018-05-15T13:00:29.872Z,7.80
2018-05-15T13:02:57.418Z,6.97
2018-05-15T13:05:24.944Z,7.13
2018-05-15T13:07:52.461Z,7.20
2018-05-15T13:10:20.024Z,5.80
2018-05-15T13:12:47.541Z,6.37
2018-05-15T13:15:15.056Z,5.30
2018-05-15T13:17:42.861Z,4.93
2018-05-15T13:20:10.383Z,4.97
2018-05-15T13:22:37.905Z,5.40
2018-05-15T13:25:05.642Z,4.90
2018-05-15T13:27:33.169Z,5.50
2018-05-15T13:30:00.695Z,4.93
2018-05-15T13:32:28.510Z,4.70
2018-05-15T13:34:56.047Z,4.30
2018-05-15T13:37:23.558Z,4.07
2018-05-15T13:39:51.415Z,4.90
2018-05-15T13:42:18.962Z,4.47
2018-05-15T13:44:46.543Z,4.70
2018-05-15T13:47:14.097Z,4.43
2018-05-15T13:49:41.661Z,3.90
2018-05-15T13:52:09.189Z,3.33
2018-05-15T13:54:36.965Z,3.13
2018-05-15T13:57:04.484Z,3.50
2018-05-15T13:59:32.009Z,2.97
2018-05-15T14:01:59.552Z,3.87
2018-05-15T14:04:27.081Z,4.03
2018-05-15T14:06:54.600Z,5.07
2018-05-15T14:09:22.424Z,3.50
2018-05-15T14:11:49.941Z,3.70
2018-05-15T14:14:17.461Z,4.47
2018-05-15T14:16:45.026Z,3.83
2018-05-15T14:19:12.573Z,4.10
2018-05-15T14:21:40.181Z,3.63
2018-05-15T14:24:07.746Z,4.47
2018-05-15T14:26:35.268Z,4.50
2018-05-15T14:29:02.800Z,3.37
2018-05-15T14:31:31.106Z,3.50
2018-05-15T14:33:58.875Z,3.57
2018-05-15T14:36:26.388Z,3.60
2018-05-15T14:38:54.179Z,2.93
2018-05-15T14:44:25.881Z,3.33
2018-05-15T14:46:53.620Z,3.30
2018-05-15T14:49:21.160Z,3.23
2018-05-15T14:51:48.921Z,3.03
2018-05-15T14:54:16.433Z,3.00
2018-05-15T14:56:44.038Z,3.50
2018-05-15T14:59:11.580Z,3.47
2018-05-15T15:01:39.098Z,3.90
2018-05-15T15:04:07.354Z,3.63
2018-05-15T15:06:34.913Z,3.30
2018-05-15T15:09:02.476Z,3.13
2018-05-15T15:11:30.135Z,3.20
2018-05-15T15:13:57.717Z,3.50
2018-05-15T15:16:25.246Z,3.37
2018-05-15T15:18:52.816Z,4.03
2018-05-15T15:21:20.671Z,3.30
2018-05-15T15:23:48.850Z,3.73
2018-05-15T15:26:16.720Z,3.40
2018-05-15T15:28:44.587Z,4.17
2018-05-15T15:31:12.102Z,4.03
2018-05-15T15:33:39.632Z,4.70
2018-05-15T15:36:07.443Z,3.83
2018-05-15T15:38:35.130Z,3.90
2018-05-15T15:41:02.894Z,3.87
2018-05-15T15:43:30.881Z,4.30
2018-05-15T15:45:58.480Z,4.93
2018-05-15T15:48:26.014Z,5.23
2018-05-15T15:50:53.728Z,4.53
2018-05-15T15:53:21.244Z,4.30
2018-05-15T15:55:48.851Z,4.70
2018-05-15T15:58:16.509Z,5.40
2018-05-15T16:00:44.035Z,4.30
2018-05-15T16:03:11.560Z,5.23
2018-05-15T16:05:39.200Z,6.07
2018-05-15T16:08:06.749Z,5.70
2018-05-15T16:10:34.277Z,7.40
2018-05-15T16:13:02.284Z,7.30
2018-05-15T16:15:29.886Z,6.80
2018-05-15T16:17:57.412Z,6.30
2018-05-15T16:20:25.571Z,6.23
2018-05-15T16:22:53.268Z,8.00
2018-05-15T16:25:21.752Z,7.60
2018-05-15T16:27:49.903Z,7.63
2018-05-15T16:30:17.541Z,6.67
2018-05-15T16:32:45.226Z,6.93
2018-05-15T16:35:12.976Z,6.50
2018-05-15T16:37:40.557Z,6.70
2018-05-15T16:40:08.130Z,6.90
2018-05-15T16:42:35.832Z,6.47
2018-05-15T16:45:03.528Z,6.77
2018-05-15T16:47:31.233Z,6.60
2018-05-15T16:49:58.769Z,5.40
2018-05-15T16:52:26.335Z,5.00
2018-05-15T16:54:53.909Z,5.17
2018-05-15T16:57:21.843Z,5.20
2018-05-15T16:59:49.515Z,5.30
2018-05-15T17:02:17.387Z,3.90
2018-05-15T17:04:45.163Z,5.10
2018-05-15T17:07:12.724Z,5.40
2018-05-15T17:09:40.242Z,4.90
2018-05-15T17:12:07.780Z,4.73
2018-05-15T17:14:35.468Z,4.90
2018-05-15T17:17:02.989Z,5.00
2018-05-15T17:19:30.695Z,4.40
2018-05-15T17:21:58.344Z,5.10
2018-05-15T17:24:25.864Z,5.70
2018-05-15T17:26:53.561Z,6.13
2018-05-15T17:29:21.145Z,5.90
2018-05-15T17:31:48.664Z,5.33
2018-05-15T17:34:16.248Z,3.70
2018-05-15T17:36:43.801Z,4.67
2018-05-15T17:39:11.583Z,4.47
2018-05-15T17:41:39.864Z,4.83
2018-05-15T17:44:08.645Z,4.40
2018-05-15T17:46:36.367Z,4.03
2018-05-15T17:49:04.481Z,4.13
2018-05-15T17:51:32.133Z,4.50
2018-05-15T17:54:00.011Z,4.87
2018-05-15T17:56:27.876Z,5.50
2018-05-15T17:58:55.540Z,4.40
2018-05-15T18:01:23.203Z,4.40
2018-05-15T18:03:50.967Z,4.17
2018-05-15T18:06:19.737Z,4.80
2018-05-15T18:08:47.578Z,4.20
2018-05-15T18:11:15.590Z,4.60
2018-05-15T18:13:43.454Z,4.10
2018-05-15T18:16:11.134Z,3.73
2018-05-15T18:18:39.290Z,4.37
2018-05-15T18:21:07.202Z,4.50
2018-05-15T18:23:35.125Z,4.17
2018-05-15T18:26:03.199Z,4.40
2018-05-15T18:28:31.166Z,4.53
2018-05-15T18:30:59.033Z,5.43
2018-05-15T18:33:27.120Z,5.30
2018-05-15T18:35:55.074Z,5.13
2018-05-15T18:38:22.940Z,5.30
2018-05-15T18:40:51.253Z,4.23
2018-05-15T18:43:19.133Z,4.10
2018-05-15T18:45:47.053Z,4.70
2018-05-15T18:48:15.243Z,3.30
2018-05-15T18:50:43.216Z,4.10
2018-05-15T18:53:11.263Z,4.70
2018-05-15T18:55:40.212Z,3.87
2018-05-15T18:58:08.205Z,4.00
2018-05-15T19:00:36.197Z,4.03
2018-05-15T19:03:04.371Z,4.23
2018-05-15T19:05:32.443Z,4.03
2018-05-15T19:08:00.537Z,4.87
2018-05-15T19:10:28.687Z,3.97
2018-05-15T19:12:58.227Z,4.67
2018-05-15T19:15:26.365Z,3.40
2018-05-15T19:17:54.766Z,4.70
2018-05-15T19:20:23.123Z,3.83
2018-05-15T19:22:51.706Z,3.20
2018-05-15T19:25:19.860Z,3.70
2018-05-15T19:27:47.660Z,3.70
2018-05-15T19:30:15.614Z,4.30
2018-05-15T19:32:43.761Z,4.10
2018-05-15T19:35:11.756Z,4.70
2018-05-15T19:37:40.954Z,4.03
2018-05-15T19:40:13.956Z,4.23
2018-05-15T19:42:41.808Z,4.70
2018-05-15T19:45:09.678Z,4.47
2018-05-15T19:47:37.964Z,4.80
2018-05-15T19:50:06.240Z,4.60
2018-05-15T19:52:34.174Z,4.83
2018-05-15T19:55:02.391Z,4.57
2018-05-15T19:57:30.446Z,4.37
2018-05-15T19:59:59.127Z,6.83
2018-05-15T20:02:27.096Z,5.67
2018-05-15T20:04:54.968Z,5.10
2018-05-15T20:07:23.034Z,6.40
2018-05-15T20:09:51.002Z,5.70
2018-05-15T20:12:18.868Z,5.50
2018-05-15T20:14:46.705Z,7.07
2018-05-15T20:17:15.231Z,6.93
2018-05-15T20:19:43.100Z,5.63
2018-05-15T20:22:11.052Z,6.07
2018-05-15T20:24:40.250Z,5.80
2018-05-15T20:27:11.618Z,5.70
2018-05-15T20:29:40.286Z,6.13
2018-05-15T20:32:09.575Z,6.03
2018-05-15T20:34:37.450Z,5.33
2018-05-15T20:37:08.129Z,6.03
2018-05-15T20:39:36.051Z,5.70
2018-05-15T20:42:04.338Z,6.03
2018-05-15T20:44:32.723Z,6.90
2018-05-15T20:47:00.677Z,6.83
2018-05-15T20:49:28.520Z,7.40
2018-05-15T20:51:57.126Z,7.40
2018-05-15T20:54:25.007Z,7.10
2018-05-15T20:56:52.987Z,7.83
2018-05-15T20:59:21.552Z,5.90
2018-05-15T21:01:49.677Z,7.57
2018-05-15T21:04:17.584Z,7.47
2018-05-15T21:06:45.614Z,7.57
2018-05-15T21:09:13.523Z,7.23
2018-05-15T21:11:41.389Z,7.87
2018-05-15T21:14:09.562Z,9.00
2018-05-15T21:16:37.839Z,7.90
2018-05-15T21:19:05.605Z,8.23
2018-05-15T21:21:33.738Z,7.97
2018-05-15T21:24:01.607Z,7.93
2018-05-15T21:26:29.510Z,9.27
2018-05-15T21:28:57.271Z,8.70
2018-05-15T21:31:24.936Z,8.90
2018-05-15T21:33:52.550Z,9.30
2018-05-15T21:36:20.247Z,8.37
2018-05-15T21:38:48.026Z,7.67
2018-05-15T21:41:16.575Z,9.17
2018-05-15T21:43:44.990Z,9.10
2018-05-15T21:46:12.809Z,8.90
2018-05-15T21:48:40.477Z,9.83
2018-05-15T21:51:08.380Z,9.33
2018-05-15T21:53:36.042Z,10.03
2018-05-15T21:56:03.592Z,10.13
2018-05-15T21:58:31.560Z,9.63
2018-05-15T22:01:00.052Z,9.03
2018-05-15T22:03:27.704Z,10.70
2018-05-15T22:05:55.289Z,10.50
2018-05-15T22:08:22.817Z,10.37
2018-05-15T22:10:51.996Z,11.47
2018-05-15T22:13:31.565Z,11.70
2018-05-15T22:16:10.988Z,10.53
2018-05-15T22:18:50.656Z,12.60
2018-05-15T22:21:29.973Z,11.40
2018-05-15T22:23:57.220Z,10.90
2018-05-15T22:26:24.740Z,11.73
2018-05-15T22:28:52.269Z,11.90
2018-05-15T22:31:19.999Z,10.70
2018-05-15T22:33:47.512Z,11.20
2018-05-15T22:36:15.037Z,12.10
2018-05-15T22:38:42.603Z,12.93
2018-05-15T22:41:10.129Z,12.50
2018-05-15T22:43:37.673Z,12.70
2018-05-15T22:46:05.368Z,11.90
2018-05-15T22:48:32.892Z,11.43
2018-05-15T22:51:00.429Z,12.57
2018-05-15T22:53:28.359Z,11.33
2018-05-15T22:55:55.892Z,12.23
2018-05-15T22:58:23.417Z,10.83
2018-05-15T23:00:51.224Z,11.17
2018-05-15T23:03:18.748Z,10.50
2018-05-15T23:05:46.268Z,13.00
2018-05-15T23:08:14.127Z,11.97
2018-05-15T23:10:41.647Z,11.40
2018-05-15T23:13:09.173Z,11.57
2018-05-15T23:15:36.890Z,10.57
2018-05-15T23:18:04.413Z,10.70
2018-05-15T23:20:31.973Z,12.80
2018-05-15T23:22:59.677Z,11.77
2018-05-15T23:25:27.192Z,11.90
2018-05-15T23:27:54.720Z,12.67
2018-05-15T23:30:22.453Z,12.13
2018-05-15T23:32:49.978Z,11.80
2018-05-15T23:35:17.516Z,10.93
2018-05-15T23:37:45.333Z,12.00
2018-05-15T23:40:12.863Z,11.23
2018-05-15T23:42:40.391Z,12.60
2018-05-15T23:45:08.084Z,11.63
2018-05-15T23:47:35.610Z,13.30
2018-05-15T23:50:03.233Z,12.07
2018-05-15T23:52:30.800Z,12.20
2018-05-15T23:54:58.329Z,12.53
2018-05-15T23:57:25.852Z,12.37
2018-05-15T23:59:53.565Z,13.50
